sensor_id;sensor_type;location;lat;lon;timestamp;P1;durP1;ratioP1;P2;durP2;ratioP2
19623;SDS011;9959;49.798;9.928;2023-02-01T00:00:48;9.73;;;5.40;;
19623;SDS011;9959;49.798;9.928;2023-02-01T00:03:15;7.53;;;4.70;;
19623;SDS011;9959;49.798;9.928;2023-02-01T00:05:42;10.07;;;6.00;;
19623;SDS011;9959;49.798;9.928;2023-02-01T00:08:09;8.95;;;6.10;;
19623;SDS011;9959;49.798;9.928;2023-02-01T00:10:39;7.07;;;5.40;;
19623;SDS011;9959;49.798;9.928;2023-02-01T00:13:05;9.85;;;6.18;;
19623;SDS011;9959;49.798;9.928;2023-02-01T00:15:35;11.23;;;5.57;;
19623;SDS011;9959;49.798;9.928;2023-02-01T00:18:02;13.15;;;6.20;;
19623;SDS011;9959;49.798;9.928;2023-02-01T00:20:29;7.65;;;5.45;;
19623;SDS011;9959;49.798;9.928;2023-02-01T00:22:56;8.07;;;5.28;;
19623;SDS011;9959;49.798;9.928;2023-02-01T00:25:24;8.02;;;5.00;;
19623;SDS011;9959;49.798;9.928;2023-02-01T00:27:58;6.53;;;4.60;;
19623;SDS011;9959;49.798;9.928;2023-02-01T00:30:31;7.68;;;4.65;;
19623;SDS011;9959;49.798;9.928;2023-02-01T00:32:59;10.48;;;6.07;;
19623;SDS011;9959;49.798;9.928;2023-02-01T00:35:26;9.98;;;5.13;;
19623;SDS011;9959;49.798;9.928;2023-02-01T00:37:56;8.00;;;5.32;;
19623;SDS011;9959;49.798;9.928;2023-02-01T00:40:25;8.80;;;5.43;;
19623;SDS011;9959;49.798;9.928;2023-02-01T00:42:52;7.10;;;4.88;;
19623;SDS011;9959;49.798;9.928;2023-02-01T00:45:19;10.20;;;5.50;;
19623;SDS011;9959;49.798;9.928;2023-02-01T00:47:49;7.68;;;4.95;;
19623;SDS011;9959;49.798;9.928;2023-02-01T00:50:16;9.68;;;4.57;;
19623;SDS011;9959;49.798;9.928;2023-02-01T00:52:43;7.70;;;5.05;;
19623;SDS011;9959;49.798;9.928;2023-02-01T00:55:10;6.40;;;4.55;;
19623;SDS011;9959;49.798;9.928;2023-02-01T00:57:37;9.00;;;4.93;;
19623;SDS011;9959;49.798;9.928;2023-02-01T01:00:04;6.80;;;4.32;;
19623;SDS011;9959;49.798;9.928;2023-02-01T01:02:39;7.57;;;4.43;;
19623;SDS011;9959;49.798;9.928;2023-02-01T01:05:13;6.38;;;4.50;;
19623;SDS011;9959;49.798;9.928;2023-02-01T01:07:40;8.70;;;4.55;;
19623;SDS011;9959;49.798;9.928;2023-02-01T01:10:07;8.05;;;4.15;;
19623;SDS011;9959;49.798;9.928;2023-02-01T01:12:34;6.03;;;3.97;;
19623;SDS011;9959;49.798;9.928;2023-02-01T01:15:01;6.65;;;4.45;;
19623;SDS011;9959;49.798;9.928;2023-02-01T01:17:30;7.60;;;3.95;;
19623;SDS011;9959;49.798;9.928;2023-02-01T01:20:03;6.10;;;4.05;;
19623;SDS011;9959;49.798;9.928;2023-02-01T01:22:30;7.40;;;4.60;;
19623;SDS011;9959;49.798;9.928;2023-02-01T01:24:58;6.80;;;4.50;;
19623;SDS011;9959;49.798;9.928;2023-02-01T01:27:24;7.85;;;4.30;;
19623;SDS011;9959;49.798;9.928;2023-02-01T01:29:51;5.80;;;3.63;;
19623;SDS011;9959;49.798;9.928;2023-02-01T01:32:19;8.38;;;4.65;;
19623;SDS011;9959;49.798;9.928;2023-02-01T01:34:45;7.03;;;4.60;;
19623;SDS011;9959;49.798;9.928;2023-02-01T01:37:12;10.27;;;4.65;;
19623;SDS011;9959;49.798;9.928;2023-02-01T01:39:39;8.15;;;4.90;;
19623;SDS011;9959;49.798;9.928;2023-02-01T01:42:08;10.35;;;5.25;;
19623;SDS011;9959;49.798;9.928;2023-02-01T01:47:27;7.90;;;4.43;;
19623;SDS011;9959;49.798;9.928;2023-02-01T01:50:06;7.50;;;4.22;;
19623;SDS011;9959;49.798;9.928;2023-02-01T01:52:36;6.15;;;4.32;;
19623;SDS011;9959;49.798;9.928;2023-02-01T01:55:07;5.38;;;3.30;;
19623;SDS011;9959;49.798;9.928;2023-02-01T01:57:39;6.22;;;2.72;;
19623;SDS011;9959;49.798;9.928;2023-02-01T02:00:12;7.25;;;3.55;;
19623;SDS011;9959;49.798;9.928;2023-02-01T02:02:43;6.97;;;3.72;;
19623;SDS011;9959;49.798;9.928;2023-02-01T02:05:14;4.70;;;3.40;;
19623;SDS011;9959;49.798;9.928;2023-02-01T02:07:48;4.68;;;3.25;;
19623;SDS011;9959;49.798;9.928;2023-02-01T02:10:17;3.65;;;3.00;;
19623;SDS011;9959;49.798;9.928;2023-02-01T02:12:45;3.85;;;3.17;;
19623;SDS011;9959;49.798;9.928;2023-02-01T02:15:14;3.53;;;2.63;;
19623;SDS011;9959;49.798;9.928;2023-02-01T02:17:55;6.50;;;2.85;;
19623;SDS011;9959;49.798;9.928;2023-02-01T02:23:20;4.75;;;2.83;;
19623;SDS011;9959;49.798;9.928;2023-02-01T02:34:38;6.22;;;3.63;;
19623;SDS011;9959;49.798;9.928;2023-02-01T02:37:16;5.30;;;3.28;;
19623;SDS011;9959;49.798;9.928;2023-02-01T02:42:26;5.70;;;3.53;;
19623;SDS011;9959;49.798;9.928;2023-02-01T02:51:01;6.18;;;3.65;;
19623;SDS011;9959;49.798;9.928;2023-02-01T02:54:08;6.50;;;3.75;;
19623;SDS011;9959;49.798;9.928;2023-02-01T02:57:04;6.50;;;4.10;;
19623;SDS011;9959;49.798;9.928;2023-02-01T03:00:00;7.05;;;4.43;;
19623;SDS011;9959;49.798;9.928;2023-02-01T03:02:49;10.57;;;5.65;;
19623;SDS011;9959;49.798;9.928;2023-02-01T03:05:36;7.63;;;4.85;;
19623;SDS011;9959;49.798;9.928;2023-02-01T03:18:55;12.15;;;6.38;;
19623;SDS011;9959;49.798;9.928;2023-02-01T03:21:32;11.85;;;6.43;;
19623;SDS011;9959;49.798;9.928;2023-02-01T03:24:09;11.65;;;6.63;;
19623;SDS011;9959;49.798;9.928;2023-02-01T03:26:40;10.65;;;6.38;;
19623;SDS011;9959;49.798;9.928;2023-02-01T03:29:14;9.27;;;5.75;;
19623;SDS011;9959;49.798;9.928;2023-02-01T03:31:45;10.70;;;5.28;;
19623;SDS011;9959;49.798;9.928;2023-02-01T03:34:12;7.28;;;4.80;;
19623;SDS011;9959;49.798;9.928;2023-02-01T03:36:40;10.52;;;5.43;;
19623;SDS011;9959;49.798;9.928;2023-02-01T03:39:34;8.63;;;4.80;;
19623;SDS011;9959;49.798;9.928;2023-02-01T03:42:09;9.85;;;5.65;;
19623;SDS011;9959;49.798;9.928;2023-02-01T03:44:45;7.60;;;5.25;;
19623;SDS011;9959;49.798;9.928;2023-02-01T03:47:18;9.45;;;6.07;;
19623;SDS011;9959;49.798;9.928;2023-02-01T03:50:21;8.77;;;5.60;;
19623;SDS011;9959;49.798;9.928;2023-02-01T03:52:48;8.63;;;5.22;;
19623;SDS011;9959;49.798;9.928;2023-02-01T03:55:20;10.70;;;5.28;;
19623;SDS011;9959;49.798;9.928;2023-02-01T03:57:52;8.05;;;4.97;;
19623;SDS011;9959;49.798;9.928;2023-02-01T04:00:24;7.32;;;5.50;;
19623;SDS011;9959;49.798;9.928;2023-02-01T04:02:52;11.52;;;4.97;;
19623;SDS011;9959;49.798;9.928;2023-02-01T04:05:20;11.65;;;5.35;;
19623;SDS011;9959;49.798;9.928;2023-02-01T04:07:47;7.00;;;4.03;;
19623;SDS011;9959;49.798;9.928;2023-02-01T04:10:14;8.90;;;3.83;;
19623;SDS011;9959;49.798;9.928;2023-02-01T04:12:44;6.07;;;2.90;;
19623;SDS011;9959;49.798;9.928;2023-02-01T04:15:12;5.95;;;3.10;;
19623;SDS011;9959;49.798;9.928;2023-02-01T04:17:39;12.70;;;3.50;;
19623;SDS011;9959;49.798;9.928;2023-02-01T04:20:09;7.68;;;3.10;;
19623;SDS011;9959;49.798;9.928;2023-02-01T04:22:36;7.20;;;3.20;;
19623;SDS011;9959;49.798;9.928;2023-02-01T04:25:03;8.38;;;2.40;;
19623;SDS011;9959;49.798;9.928;2023-02-01T04:27:32;5.72;;;2.45;;
19623;SDS011;9959;49.798;9.928;2023-02-01T04:29:58;12.57;;;2.70;;
19623;SDS011;9959;49.798;9.928;2023-02-01T04:32:25;11.43;;;2.97;;
19623;SDS011;9959;49.798;9.928;2023-02-01T04:34:52;15.38;;;3.15;;
19623;SDS011;9959;49.798;9.928;2023-02-01T04:37:19;12.82;;;3.00;;
19623;SDS011;9959;49.798;9.928;2023-02-01T04:39:45;8.73;;;2.88;;
19623;SDS011;9959;49.798;9.928;2023-02-01T04:42:13;11.43;;;2.95;;
19623;SDS011;9959;49.798;9.928;2023-02-01T04:44:43;14.75;;;2.72;;
19623;SDS011;9959;49.798;9.928;2023-02-01T04:47:13;9.88;;;2.80;;
19623;SDS011;9959;49.798;9.928;2023-02-01T04:49:41;13.35;;;2.38;;
19623;SDS011;9959;49.798;9.928;2023-02-01T04:52:08;8.25;;;2.38;;
19623;SDS011;9959;49.798;9.928;2023-02-01T04:54:35;12.27;;;2.83;;
19623;SDS011;9959;49.798;9.928;2023-02-01T04:57:02;16.48;;;3.28;;
19623;SDS011;9959;49.798;9.928;2023-02-01T04:59:29;11.48;;;3.03;;
19623;SDS011;9959;49.798;9.928;2023-02-01T05:02:01;11.27;;;2.90;;
19623;SDS011;9959;49.798;9.928;2023-02-01T05:04:28;11.00;;;2.65;;
19623;SDS011;9959;49.798;9.928;2023-02-01T05:06:55;11.60;;;3.28;;
19623;SDS011;9959;49.798;9.928;2023-02-01T05:09:27;14.02;;;2.90;;
19623;SDS011;9959;49.798;9.928;2023-02-01T05:11:54;10.77;;;2.70;;
19623;SDS011;9959;49.798;9.928;2023-02-01T05:14:40;17.85;;;2.40;;
19623;SDS011;9959;49.798;9.928;2023-02-01T05:17:06;6.80;;;1.67;;
19623;SDS011;9959;49.798;9.928;2023-02-01T05:19:35;9.40;;;2.05;;
19623;SDS011;9959;49.798;9.928;2023-02-01T05:22:02;6.55;;;2.00;;
19623;SDS011;9959;49.798;9.928;2023-02-01T05:24:28;8.98;;;1.95;;
19623;SDS011;9959;49.798;9.928;2023-02-01T05:26:55;5.45;;;1.55;;
19623;SDS011;9959;49.798;9.928;2023-02-01T05:29:25;3.78;;;1.20;;
19623;SDS011;9959;49.798;9.928;2023-02-01T05:31:52;8.02;;;1.67;;
19623;SDS011;9959;49.798;9.928;2023-02-01T05:34:19;2.47;;;1.60;;
19623;SDS011;9959;49.798;9.928;2023-02-01T05:36:49;1.42;;;1.02;;
19623;SDS011;9959;49.798;9.928;2023-02-01T05:39:19;2.78;;;1.25;;
19623;SDS011;9959;49.798;9.928;2023-02-01T05:41:45;3.72;;;1.30;;
19623;SDS011;9959;49.798;9.928;2023-02-01T05:44:12;3.33;;;1.10;;
19623;SDS011;9959;49.798;9.928;2023-02-01T05:46:39;9.60;;;1.65;;
19623;SDS011;9959;49.798;9.928;2023-02-01T05:49:06;1.20;;;1.10;;
19623;SDS011;9959;49.798;9.928;2023-02-01T05:51:37;2.15;;;1.30;;
19623;SDS011;9959;49.798;9.928;2023-02-01T05:54:05;2.50;;;1.40;;
19623;SDS011;9959;49.798;9.928;2023-02-01T05:56:36;1.90;;;1.48;;
19623;SDS011;9959;49.798;9.928;2023-02-01T05:59:02;5.43;;;1.83;;
19623;SDS011;9959;49.798;9.928;2023-02-01T06:01:29;2.63;;;1.58;;
19623;SDS011;9959;49.798;9.928;2023-02-01T06:03:56;4.72;;;1.83;;
19623;SDS011;9959;49.798;9.928;2023-02-01T06:06:24;3.70;;;2.00;;
19623;SDS011;9959;49.798;9.928;2023-02-01T06:08:55;7.28;;;2.17;;
19623;SDS011;9959;49.798;9.928;2023-02-01T06:11:22;6.60;;;2.40;;
19623;SDS011;9959;49.798;9.928;2023-02-01T06:13:58;4.38;;;2.45;;
19623;SDS011;9959;49.798;9.928;2023-02-01T06:16:25;5.30;;;2.15;;
19623;SDS011;9959;49.798;9.928;2023-02-01T06:18:58;6.60;;;2.88;;
19623;SDS011;9959;49.798;9.928;2023-02-01T06:21:25;3.88;;;2.35;;
19623;SDS011;9959;49.798;9.928;2023-02-01T06:23:52;8.63;;;2.60;;
19623;SDS011;9959;49.798;9.928;2023-02-01T06:26:27;5.53;;;2.35;;
19623;SDS011;9959;49.798;9.928;2023-02-01T06:28:55;6.40;;;2.70;;
19623;SDS011;9959;49.798;9.928;2023-02-01T06:31:22;8.38;;;2.90;;
19623;SDS011;9959;49.798;9.928;2023-02-01T06:33:50;5.50;;;2.65;;
19623;SDS011;9959;49.798;9.928;2023-02-01T06:36:18;4.43;;;2.70;;
19623;SDS011;9959;49.798;9.928;2023-02-01T06:38:47;5.13;;;2.53;;
19623;SDS011;9959;49.798;9.928;2023-02-01T06:41:15;9.40;;;3.20;;
19623;SDS011;9959;49.798;9.928;2023-02-01T06:43:42;8.70;;;2.45;;
19623;SDS011;9959;49.798;9.928;2023-02-01T06:46:13;7.43;;;3.35;;
19623;SDS011;9959;49.798;9.928;2023-02-01T06:48:42;7.53;;;2.67;;
19623;SDS011;9959;49.798;9.928;2023-02-01T06:51:18;5.70;;;2.88;;
19623;SDS011;9959;49.798;9.928;2023-02-01T06:53:49;8.10;;;3.08;;
19623;SDS011;9959;49.798;9.928;2023-02-01T06:56:16;7.93;;;2.75;;
19623;SDS011;9959;49.798;9.928;2023-02-01T06:58:44;10.18;;;2.80;;
19623;SDS011;9959;49.798;9.928;2023-02-01T07:01:11;8.00;;;2.75;;
19623;SDS011;9959;49.798;9.928;2023-02-01T07:03:38;10.15;;;3.22;;
19623;SDS011;9959;49.798;9.928;2023-02-01T07:06:05;14.20;;;3.00;;
19623;SDS011;9959;49.798;9.928;2023-02-01T07:08:34;12.48;;;3.50;;
19623;SDS011;9959;49.798;9.928;2023-02-01T07:11:03;13.55;;;3.85;;
19623;SDS011;9959;49.798;9.928;2023-02-01T07:13:35;16.20;;;4.28;;
19623;SDS011;9959;49.798;9.928;2023-02-01T07:16:04;11.00;;;3.50;;
19623;SDS011;9959;49.798;9.928;2023-02-01T07:18:33;12.10;;;4.03;;
19623;SDS011;9959;49.798;9.928;2023-02-01T07:21:00;17.85;;;3.53;;
19623;SDS011;9959;49.798;9.928;2023-02-01T07:23:27;13.50;;;4.00;;
19623;SDS011;9959;49.798;9.928;2023-02-01T07:25:58;11.73;;;4.35;;
19623;SDS011;9959;49.798;9.928;2023-02-01T07:28:27;10.40;;;3.47;;
19623;SDS011;9959;49.798;9.928;2023-02-01T07:31:01;19.17;;;4.55;;
19623;SDS011;9959;49.798;9.928;2023-02-01T07:33:29;13.57;;;4.25;;
19623;SDS011;9959;49.798;9.928;2023-02-01T07:35:56;13.05;;;4.22;;
19623;SDS011;9959;49.798;9.928;2023-02-01T07:38:22;12.05;;;3.85;;
19623;SDS011;9959;49.798;9.928;2023-02-01T07:40:50;14.40;;;4.13;;
19623;SDS011;9959;49.798;9.928;2023-02-01T07:43:16;10.13;;;3.90;;
19623;SDS011;9959;49.798;9.928;2023-02-01T07:45:43;13.45;;;4.13;;
19623;SDS011;9959;49.798;9.928;2023-02-01T07:48:17;10.77;;;3.72;;
19623;SDS011;9959;49.798;9.928;2023-02-01T07:50:44;19.95;;;4.57;;
19623;SDS011;9959;49.798;9.928;2023-02-01T07:53:11;12.40;;;4.05;;
19623;SDS011;9959;49.798;9.928;2023-02-01T07:55:38;13.10;;;3.50;;
19623;SDS011;9959;49.798;9.928;2023-02-01T07:58:05;14.20;;;4.30;;
19623;SDS011;9959;49.798;9.928;2023-02-01T08:00:32;11.68;;;3.65;;
19623;SDS011;9959;49.798;9.928;2023-02-01T08:03:05;12.25;;;3.47;;
19623;SDS011;9959;49.798;9.928;2023-02-01T08:05:32;11.02;;;3.55;;
19623;SDS011;9959;49.798;9.928;2023-02-01T08:07:59;9.23;;;3.55;;
19623;SDS011;9959;49.798;9.928;2023-02-01T08:10:26;10.82;;;4.40;;
19623;SDS011;9959;49.798;9.928;2023-02-01T08:12:57;18.08;;;3.70;;
19623;SDS011;9959;49.798;9.928;2023-02-01T08:15:26;14.15;;;4.35;;
19623;SDS011;9959;49.798;9.928;2023-02-01T08:17:54;11.88;;;4.20;;
19623;SDS011;9959;49.798;9.928;2023-02-01T08:20:21;13.27;;;5.00;;
19623;SDS011;9959;49.798;9.928;2023-02-01T08:22:55;11.18;;;3.63;;
19623;SDS011;9959;49.798;9.928;2023-02-01T08:25:22;9.73;;;3.15;;
19623;SDS011;9959;49.798;9.928;2023-02-01T08:27:50;11.23;;;3.33;;
19623;SDS011;9959;49.798;9.928;2023-02-01T08:30:17;12.98;;;4.60;;
19623;SDS011;9959;49.798;9.928;2023-02-01T08:32:44;11.07;;;3.45;;
19623;SDS011;9959;49.798;9.928;2023-02-01T08:35:10;11.82;;;3.58;;
19623;SDS011;9959;49.798;9.928;2023-02-01T08:37:37;15.45;;;3.80;;
19623;SDS011;9959;49.798;9.928;2023-02-01T08:40:04;15.07;;;4.03;;
19623;SDS011;9959;49.798;9.928;2023-02-01T08:42:34;13.77;;;3.25;;
19623;SDS011;9959;49.798;9.928;2023-02-01T08:45:03;13.15;;;3.45;;
19623;SDS011;9959;49.798;9.928;2023-02-01T08:47:30;14.90;;;3.33;;
19623;SDS011;9959;49.798;9.928;2023-02-01T08:49:57;13.20;;;3.60;;
19623;SDS011;9959;49.798;9.928;2023-02-01T08:52:24;7.85;;;3.33;;
19623;SDS011;9959;49.798;9.928;2023-02-01T08:54:51;9.10;;;2.67;;
19623;SDS011;9959;49.798;9.928;2023-02-01T08:57:18;16.13;;;3.60;;
19623;SDS011;9959;49.798;9.928;2023-02-01T08:59:44;12.57;;;3.40;;
19623;SDS011;9959;49.798;9.928;2023-02-01T09:02:15;11.68;;;3.28;;
19623;SDS011;9959;49.798;9.928;2023-02-01T09:04:43;10.00;;;3.15;;
19623;SDS011;9959;49.798;9.928;2023-02-01T09:07:10;9.93;;;2.97;;
19623;SDS011;9959;49.798;9.928;2023-02-01T09:09:36;11.68;;;3.42;;
19623;SDS011;9959;49.798;9.928;2023-02-01T09:12:03;13.80;;;3.50;;
19623;SDS011;9959;49.798;9.928;2023-02-01T09:14:30;12.50;;;3.55;;
19623;SDS011;9959;49.798;9.928;2023-02-01T09:16:57;11.75;;;3.65;;
19623;SDS011;9959;49.798;9.928;2023-02-01T09:19:24;13.32;;;3.20;;
19623;SDS011;9959;49.798;9.928;2023-02-01T09:21:52;15.95;;;3.75;;
19623;SDS011;9959;49.798;9.928;2023-02-01T09:24:23;13.80;;;3.63;;
19623;SDS011;9959;49.798;9.928;2023-02-01T09:26:50;13.75;;;3.75;;
19623;SDS011;9959;49.798;9.928;2023-02-01T09:29:17;11.43;;;3.55;;
19623;SDS011;9959;49.798;9.928;2023-02-01T09:31:43;18.00;;;3.90;;
19623;SDS011;9959;49.798;9.928;2023-02-01T09:34:26;15.77;;;3.50;;
19623;SDS011;9959;49.798;9.928;2023-02-01T09:36:53;14.02;;;4.65;;
19623;SDS011;9959;49.798;9.928;2023-02-01T09:39:20;13.25;;;3.92;;
19623;SDS011;9959;49.798;9.928;2023-02-01T09:41:59;14.48;;;3.85;;
19623;SDS011;9959;49.798;9.928;2023-02-01T09:47:03;9.95;;;4.22;;
19623;SDS011;9959;49.798;9.928;2023-02-01T09:49:31;15.27;;;3.92;;
19623;SDS011;9959;49.798;9.928;2023-02-01T09:52:04;6.07;;;3.08;;
19623;SDS011;9959;49.798;9.928;2023-02-01T09:57:10;12.32;;;3.65;;
19623;SDS011;9959;49.798;9.928;2023-02-01T09:59:50;14.10;;;3.95;;
19623;SDS011;9959;49.798;9.928;2023-02-01T10:02:25;7.03;;;2.78;;
19623;SDS011;9959;49.798;9.928;2023-02-01T10:04:57;14.45;;;3.53;;
19623;SDS011;9959;49.798;9.928;2023-02-01T10:10:28;13.88;;;3.30;;
19623;SDS011;9959;49.798;9.928;2023-02-01T10:18:40;13.50;;;3.92;;
19623;SDS011;9959;49.798;9.928;2023-02-01T10:24:16;31.75;;;4.07;;
19623;SDS011;9959;49.798;9.928;2023-02-01T10:27:02;15.80;;;3.42;;
19623;SDS011;9959;49.798;9.928;2023-02-01T10:29:58;11.63;;;2.80;;
19623;SDS011;9959;49.798;9.928;2023-02-01T10:32:28;11.23;;;2.70;;
19623;SDS011;9959;49.798;9.928;2023-02-01T10:34:58;11.13;;;3.40;;
19623;SDS011;9959;49.798;9.928;2023-02-01T10:37:28;17.02;;;3.40;;
19623;SDS011;9959;49.798;9.928;2023-02-01T10:39:56;9.93;;;2.72;;
19623;SDS011;9959;49.798;9.928;2023-02-01T10:42:26;10.75;;;2.83;;
19623;SDS011;9959;49.798;9.928;2023-02-01T10:44:58;19.40;;;3.50;;
19623;SDS011;9959;49.798;9.928;2023-02-01T10:47:28;10.05;;;3.45;;
19623;SDS011;9959;49.798;9.928;2023-02-01T10:49:57;16.10;;;3.78;;
19623;SDS011;9959;49.798;9.928;2023-02-01T10:57:57;16.52;;;3.28;;
19623;SDS011;9959;49.798;9.928;2023-02-01T11:00:25;8.02;;;2.72;;
19623;SDS011;9959;49.798;9.928;2023-02-01T11:02:53;10.93;;;2.40;;
19623;SDS011;9959;49.798;9.928;2023-02-01T11:05:20;14.20;;;3.33;;
19623;SDS011;9959;49.798;9.928;2023-02-01T11:07:49;12.63;;;2.42;;
19623;SDS011;9959;49.798;9.928;2023-02-01T11:10:38;6.15;;;2.50;;
19623;SDS011;9959;49.798;9.928;2023-02-01T11:13:05;10.10;;;4.03;;
19623;SDS011;9959;49.798;9.928;2023-02-01T11:15:31;11.07;;;3.03;;
19623;SDS011;9959;49.798;9.928;2023-02-01T11:18:07;17.25;;;3.08;;
19623;SDS011;9959;49.798;9.928;2023-02-01T11:20:42;10.15;;;3.35;;
19623;SDS011;9959;49.798;9.928;2023-02-01T11:23:13;15.95;;;2.67;;
19623;SDS011;9959;49.798;9.928;2023-02-01T11:25:58;13.00;;;3.13;;
19623;SDS011;9959;49.798;9.928;2023-02-01T11:28:29;6.57;;;2.45;;
19623;SDS011;9959;49.798;9.928;2023-02-01T11:31:02;9.05;;;3.00;;
19623;SDS011;9959;49.798;9.928;2023-02-01T11:33:33;13.10;;;2.90;;
19623;SDS011;9959;49.798;9.928;2023-02-01T11:36:16;8.38;;;2.60;;
19623;SDS011;9959;49.798;9.928;2023-02-01T11:41:42;9.07;;;2.10;;
19623;SDS011;9959;49.798;9.928;2023-02-01T11:44:22;10.27;;;2.40;;
19623;SDS011;9959;49.798;9.928;2023-02-01T11:46:55;10.73;;;2.33;;
19623;SDS011;9959;49.798;9.928;2023-02-01T11:49:38;7.53;;;2.30;;
19623;SDS011;9959;49.798;9.928;2023-02-01T11:55:25;6.90;;;2.45;;
19623;SDS011;9959;49.798;9.928;2023-02-01T11:58:12;10.98;;;2.85;;
19623;SDS011;9959;49.798;9.928;2023-02-01T12:08:58;9.88;;;2.60;;
19623;SDS011;9959;49.798;9.928;2023-02-01T12:31:15;13.45;;;2.50;;
19623;SDS011;9959;49.798;9.928;2023-02-01T12:39:31;8.52;;;2.33;;
19623;SDS011;9959;49.798;9.928;2023-02-01T12:42:14;9.95;;;2.33;;
19623;SDS011;9959;49.798;9.928;2023-02-01T12:44:55;12.07;;;2.67;;
19623;SDS011;9959;49.798;9.928;2023-02-01T12:47:31;14.45;;;2.70;;
19623;SDS011;9959;49.798;9.928;2023-02-01T12:50:18;8.77;;;2.72;;
19623;SDS011;9959;49.798;9.928;2023-02-01T12:53:10;9.00;;;2.50;;
19623;SDS011;9959;49.798;9.928;2023-02-01T12:55:55;7.78;;;2.45;;
19623;SDS011;9959;49.798;9.928;2023-02-01T12:58:29;7.47;;;2.17;;
19623;SDS011;9959;49.798;9.928;2023-02-01T13:01:07;12.05;;;2.65;;
19623;SDS011;9959;49.798;9.928;2023-02-01T13:04:03;8.73;;;2.50;;
19623;SDS011;9959;49.798;9.928;2023-02-01T13:11:54;10.20;;;2.50;;
19623;SDS011;9959;49.798;9.928;2023-02-01T13:17:09;11.13;;;2.95;;
19623;SDS011;9959;49.798;9.928;2023-02-01T13:22:16;13.50;;;2.75;;
19623;SDS011;9959;49.798;9.928;2023-02-01T13:24:52;10.73;;;2.28;;
19623;SDS011;9959;49.798;9.928;2023-02-01T13:27:23;7.90;;;2.70;;
19623;SDS011;9959;49.798;9.928;2023-02-01T13:29:57;10.98;;;2.50;;
19623;SDS011;9959;49.798;9.928;2023-02-01T13:35:34;9.75;;;2.58;;
19623;SDS011;9959;49.798;9.928;2023-02-01T13:44:01;10.07;;;2.42;;
19623;SDS011;9959;49.798;9.928;2023-02-01T13:49:13;11.23;;;3.53;;
19623;SDS011;9959;49.798;9.928;2023-02-01T13:51:47;8.30;;;1.95;;
19623;SDS011;9959;49.798;9.928;2023-02-01T13:54:38;11.80;;;2.30;;
19623;SDS011;9959;49.798;9.928;2023-02-01T13:57:13;9.82;;;2.40;;
19623;SDS011;9959;49.798;9.928;2023-02-01T14:00:30;10.65;;;2.60;;
19623;SDS011;9959;49.798;9.928;2023-02-01T14:08:10;9.90;;;2.40;;
19623;SDS011;9959;49.798;9.928;2023-02-01T14:13:32;9.52;;;2.92;;
19623;SDS011;9959;49.798;9.928;2023-02-01T14:23:58;12.77;;;2.80;;
19623;SDS011;9959;49.798;9.928;2023-02-01T14:32:04;9.88;;;2.00;;
19623;SDS011;9959;49.798;9.928;2023-02-01T14:42:18;8.20;;;2.42;;
19623;SDS011;9959;49.798;9.928;2023-02-01T14:44:53;13.55;;;2.53;;
19623;SDS011;9959;49.798;9.928;2023-02-01T14:52:32;12.40;;;2.40;;
19623;SDS011;9959;49.798;9.928;2023-02-01T14:55:04;14.60;;;2.92;;
19623;SDS011;9959;49.798;9.928;2023-02-01T14:57:40;10.90;;;2.42;;
19623;SDS011;9959;49.798;9.928;2023-02-01T15:00:18;11.68;;;2.35;;
19623;SDS011;9959;49.798;9.928;2023-02-01T15:02:53;8.25;;;2.15;;
19623;SDS011;9959;49.798;9.928;2023-02-01T15:05:27;13.20;;;2.10;;
19623;SDS011;9959;49.798;9.928;2023-02-01T15:07:58;10.52;;;2.33;;
19623;SDS011;9959;49.798;9.928;2023-02-01T15:10:47;9.18;;;1.95;;
19623;SDS011;9959;49.798;9.928;2023-02-01T15:13:20;8.85;;;2.92;;
19623;SDS011;9959;49.798;9.928;2023-02-01T15:18:37;6.28;;;1.88;;
19623;SDS011;9959;49.798;9.928;2023-02-01T15:21:06;13.57;;;2.72;;
19623;SDS011;9959;49.798;9.928;2023-02-01T15:24:09;9.10;;;2.33;;
19623;SDS011;9959;49.798;9.928;2023-02-01T15:26:38;11.55;;;2.72;;
19623;SDS011;9959;49.798;9.928;2023-02-01T15:29:09;13.18;;;2.75;;
19623;SDS011;9959;49.798;9.928;2023-02-01T15:31:38;13.68;;;2.42;;
19623;SDS011;9959;49.798;9.928;2023-02-01T15:34:07;8.73;;;2.42;;
19623;SDS011;9959;49.798;9.928;2023-02-01T15:36:34;13.48;;;2.67;;
19623;SDS011;9959;49.798;9.928;2023-02-01T15:39:23;6.22;;;2.22;;
19623;SDS011;9959;49.798;9.928;2023-02-01T15:41:55;16.17;;;4.30;;
19623;SDS011;9959;49.798;9.928;2023-02-01T15:47:19;11.90;;;2.40;;
19623;SDS011;9959;49.798;9.928;2023-02-01T15:49:52;13.85;;;2.72;;
19623;SDS011;9959;49.798;9.928;2023-02-01T15:55:07;9.43;;;2.53;;
19623;SDS011;9959;49.798;9.928;2023-02-01T15:57:45;15.48;;;2.72;;
19623;SDS011;9959;49.798;9.928;2023-02-01T16:02:55;12.80;;;2.70;;
19623;SDS011;9959;49.798;9.928;2023-02-01T16:08:20;13.43;;;2.70;;
19623;SDS011;9959;49.798;9.928;2023-02-01T16:10:53;16.15;;;2.85;;
19623;SDS011;9959;49.798;9.928;2023-02-01T16:13:21;10.20;;;2.70;;
19623;SDS011;9959;49.798;9.928;2023-02-01T16:15:48;11.13;;;2.67;;
19623;SDS011;9959;49.798;9.928;2023-02-01T16:18:16;14.93;;;2.78;;
19623;SDS011;9959;49.798;9.928;2023-02-01T16:20:44;9.20;;;2.20;;
19623;SDS011;9959;49.798;9.928;2023-02-01T16:23:13;13.35;;;2.83;;
19623;SDS011;9959;49.798;9.928;2023-02-01T16:25:40;11.38;;;2.72;;
19623;SDS011;9959;49.798;9.928;2023-02-01T16:28:09;16.45;;;3.67;;
19623;SDS011;9959;49.798;9.928;2023-02-01T16:30:42;12.82;;;3.28;;
19623;SDS011;9959;49.798;9.928;2023-02-01T16:33:18;11.25;;;2.80;;
19623;SDS011;9959;49.798;9.928;2023-02-01T16:35:48;13.43;;;2.78;;
19623;SDS011;9959;49.798;9.928;2023-02-01T16:38:17;6.65;;;1.90;;
19623;SDS011;9959;49.798;9.928;2023-02-01T16:40:50;6.47;;;2.03;;
19623;SDS011;9959;49.798;9.928;2023-02-01T16:43:18;13.25;;;4.15;;
19623;SDS011;9959;49.798;9.928;2023-02-01T16:45:58;13.88;;;3.85;;
19623;SDS011;9959;49.798;9.928;2023-02-01T16:48:36;12.02;;;2.63;;
19623;SDS011;9959;49.798;9.928;2023-02-01T16:51:04;13.38;;;2.80;;
19623;SDS011;9959;49.798;9.928;2023-02-01T16:53:37;8.90;;;3.00;;
19623;SDS011;9959;49.798;9.928;2023-02-01T16:56:09;12.70;;;2.95;;
19623;SDS011;9959;49.798;9.928;2023-02-01T16:58:40;15.52;;;3.58;;
19623;SDS011;9959;49.798;9.928;2023-02-01T17:01:10;9.23;;;2.67;;
19623;SDS011;9959;49.798;9.928;2023-02-01T17:06:06;10.80;;;2.67;;
19623;SDS011;9959;49.798;9.928;2023-02-01T17:08:44;19.23;;;3.70;;
19623;SDS011;9959;49.798;9.928;2023-02-01T17:11:14;13.35;;;3.67;;
19623;SDS011;9959;49.798;9.928;2023-02-01T17:13:41;10.55;;;2.90;;
19623;SDS011;9959;49.798;9.928;2023-02-01T17:16:12;9.90;;;2.63;;
19623;SDS011;9959;49.798;9.928;2023-02-01T17:18:50;14.35;;;2.78;;
19623;SDS011;9959;49.798;9.928;2023-02-01T17:21:27;10.00;;;3.10;;
19623;SDS011;9959;49.798;9.928;2023-02-01T17:23:56;15.55;;;3.35;;
19623;SDS011;9959;49.798;9.928;2023-02-01T17:26:25;14.10;;;3.15;;
19623;SDS011;9959;49.798;9.928;2023-02-01T17:28:58;11.02;;;2.70;;
19623;SDS011;9959;49.798;9.928;2023-02-01T17:31:25;13.27;;;4.03;;
19623;SDS011;9959;49.798;9.928;2023-02-01T17:33:54;16.90;;;2.88;;
19623;SDS011;9959;49.798;9.928;2023-02-01T17:36:23;9.70;;;2.72;;
19623;SDS011;9959;49.798;9.928;2023-02-01T17:38:51;20.98;;;3.95;;
19623;SDS011;9959;49.798;9.928;2023-02-01T17:41:30;11.88;;;3.10;;
19623;SDS011;9959;49.798;9.928;2023-02-01T17:43:58;8.10;;;2.88;;
19623;SDS011;9959;49.798;9.928;2023-02-01T17:46:25;13.38;;;3.25;;
19623;SDS011;9959;49.798;9.928;2023-02-01T17:48:53;18.08;;;3.00;;
19623;SDS011;9959;49.798;9.928;2023-02-01T17:51:25;20.10;;;3.88;;
19623;SDS011;9959;49.798;9.928;2023-02-01T17:53:53;23.23;;;4.15;;
19623;SDS011;9959;49.798;9.928;2023-02-01T17:56:26;21.80;;;5.95;;
19623;SDS011;9959;49.798;9.928;2023-02-01T17:58:53;15.60;;;3.88;;
19623;SDS011;9959;49.798;9.928;2023-02-01T18:01:22;14.38;;;3.40;;
19623;SDS011;9959;49.798;9.928;2023-02-01T18:03:50;14.90;;;3.55;;
19623;SDS011;9959;49.798;9.928;2023-02-01T18:06:18;8.45;;;2.53;;